Ozark, Alabama
Current Conditions -  °F | °C
As of 5:53 PM on Wednesday 28 Jan 2015 (Local Time) from KHEY Reporting Station
Clear Clear  
Wind Chill: 51°   Ceiling: Unl
Heat Index: 51°   Visibility: 10mi
Dew Point: 31°   Wind: 0mph
Humidity: 46%   Direction: NA
Pressure: 30.24"   Gusts: NA
Location:  31.46°N, 85.64°W
Report Text: KHEY 282353Z AUTO 00000KT 10SM CLR 11/M01 A3024 RMK AO2 SLP232 T01061006 10150 20100 53004 $
Loading
Personal Weather Stations






























Interactive Weather Map New forecast layout! Learn more

10-Day Weather Forecast

Advertisements
Track Severe Weather on mobile